Time;durP1;ratioP1;P1;durP2;ratioP2;P2;SDS_P1;SDS_P2;PMS_P1;PMS_P2;Temp;Humidity;BMP_temperature;BMP_pressure;BME280_temperature;BME280_humidity;BME280_pressure;Samples;Min_cycle;Max_cycle;Signal;HPM_P1;HPM_P2
2023/01/08 00:00:25;;;;;;;;;;;;;;;1.59;87.41;98870.60;86876;1288;22411;-79
2023/01/08 00:02:48;;;;;;;;;;;;;;;1.58;87.14;98863.33;86711;1309;23672;-81
2023/01/08 00:04:50;;;;;;;;;;;;;;;1.60;87.41;98859.14;86768;1288;86022;-80
2023/01/08 00:06:52;;;;;;;;;;;;;;;1.61;87.17;98859.48;86878;1288;22751;-78
2023/01/08 00:08:53;;;;;;;;;;;;;;;1.62;87.42;98859.11;86846;1288;22899;-80
2023/01/08 00:10:55;;;;;;;;;;;;;;;1.66;87.51;98859.94;86780;1291;84602;-79
2023/01/08 00:12:57;;;;;;;;;;;;;;;1.66;87.56;98856.13;86868;1281;25333;-79
2023/01/08 00:14:59;;;;;;;;;;;;;;;1.71;87.58;98860.04;86757;1287;22451;-80
2023/01/08 00:17:01;;;;;;;;;;;;;;;1.74;87.62;98853.08;86725;1288;84239;-80
2023/01/08 00:19:03;;;;;;;;;;;;;;;1.75;87.62;98844.38;86742;1280;22461;-80
2023/01/08 00:21:04;;;;;;;;;;;;;;;1.78;87.66;98846.77;86807;1298;22493;-79
2023/01/08 00:23:09;;;;;;;;;;;;;;;1.81;87.60;98847.59;86717;1288;83955;-80
2023/01/08 00:25:11;;;;;;;;;;;;;;;1.84;87.30;98844.26;86725;1293;22817;-80
2023/01/08 00:27:12;;;;;;;;;;;;;;;1.87;87.60;98840.39;86783;1288;22760;-81
2023/01/08 00:29:15;;;;;;;;;;;;;;;1.88;87.33;98837.78;86729;1287;84493;-80
2023/01/08 00:31:16;;;;;;;;;;;;;;;1.87;87.42;98836.59;86769;1286;22509;-81
2023/01/08 00:33:18;;;;;;;;;;;;;;;1.87;87.47;98838.14;86808;1287;22483;-81
2023/01/08 00:35:19;;;;;;;;;;;;;;;1.88;87.40;98842.30;86669;1289;84507;-81
2023/01/08 00:37:21;;;;;;;;;;;;;;;1.88;87.31;98844.20;86713;1298;22450;-80
2023/01/08 00:39:24;;;;;;;;;;;;;;;1.88;87.51;98840.04;86801;1295;22520;-80
2023/01/08 00:41:26;;;;;;;;;;;;;;;1.90;87.49;98832.74;86677;1288;85146;-81
2023/01/08 00:43:27;;;;;;;;;;;;;;;1.91;87.40;98835.31;86754;1298;22766;-79
2023/01/08 00:45:29;;;;;;;;;;;;;;;1.93;87.75;98836.67;86828;1288;24273;-79
2023/01/08 00:47:31;;;;;;;;;;;;;;;1.95;87.81;98835.09;86794;1288;84318;-79
2023/01/08 00:49:33;;;;;;;;;;;;;;;1.95;87.51;98830.39;86826;1288;22586;-81
2023/01/08 00:51:34;;;;;;;;;;;;;;;1.99;87.55;98835.02;86811;1287;22512;-80
2023/01/08 00:53:36;;;;;;;;;;;;;;;1.99;87.39;98833.09;86649;1291;84259;-80
2023/01/08 00:55:38;;;;;;;;;;;;;;;2.00;87.62;98834.30;86781;1288;22513;-80
2023/01/08 00:57:40;;;;;;;;;;;;;;;2.01;87.57;98833.94;86747;1293;22464;-80
2023/01/08 00:59:42;;;;;;;;;;;;;;;2.02;87.51;98830.80;86680;1291;83970;-81
2023/01/08 01:01:43;;;;;;;;;;;;;;;2.03;87.44;98824.89;86866;1281;22713;-81
2023/01/08 01:03:46;;;;;;;;;;;;;;;2.03;87.44;98825.77;86772;1281;25272;-80
2023/01/08 01:05:48;;;;;;;;;;;;;;;2.05;87.55;98825.91;86892;1288;84223;-80
2023/01/08 01:07:50;;;;;;;;;;;;;;;2.04;87.35;98827.66;86815;1288;26913;-80
2023/01/08 01:09:51;;;;;;;;;;;;;;;2.03;87.42;98826.81;86470;1312;400151;-81
2023/01/08 01:11:53;;;;;;;;;;;;;;;2.01;87.69;98827.16;86723;1287;84211;-80
2023/01/08 01:13:55;;;;;;;;;;;;;;;2.02;87.39;98826.30;86894;1284;23462;-81
2023/01/08 01:15:57;;;;;;;;;;;;;;;2.02;87.45;98827.00;86774;1288;25573;-79
2023/01/08 01:17:59;;;;;;;;;;;;;;;2.01;87.27;98825.96;86752;1309;84394;-79
2023/01/08 01:20:01;;;;;;;;;;;;;;;1.96;87.44;98815.12;86875;1288;22965;-80
2023/01/08 01:22:02;;;;;;;;;;;;;;;2.00;87.61;98823.21;86852;1287;22661;-79
2023/01/08 01:24:05;;;;;;;;;;;;;;;2.00;87.48;98821.13;86811;1288;84098;-81
2023/01/08 01:26:13;;;;;;;;;;;;;;;1.99;87.42;98815.95;86895;1289;25879;-81
2023/01/08 01:28:17;;;;;;;;;;;;;;;1.99;87.28;98816.46;86797;1287;84202;-80
2023/01/08 01:30:19;;;;;;;;;;;;;;;1.99;87.61;98818.55;86702;1294;22542;-80
2023/01/08 01:32:20;;;;;;;;;;;;;;;1.98;87.75;98817.02;86773;1291;23944;-79
2023/01/08 01:34:23;;;;;;;;;;;;;;;1.95;87.39;98819.83;86748;1291;85259;-80
2023/01/08 01:36:25;;;;;;;;;;;;;;;1.94;87.54;98814.46;86897;1281;22598;-78
2023/01/08 01:38:27;;;;;;;;;;;;;;;1.93;87.36;98810.16;86852;1288;22558;-81
2023/01/08 01:40:29;;;;;;;;;;;;;;;1.91;87.45;98800.84;86802;1295;84221;-80
2023/01/08 01:42:39;;;;;;;;;;;;;;;1.90;87.56;98802.05;86830;1291;22502;-80
2023/01/08 01:44:42;;;;;;;;;;;;;;;1.89;87.39;98799.48;86802;1297;22484;-79
2023/01/08 01:46:46;;;;;;;;;;;;;;;1.87;87.45;98799.50;86741;1291;85192;-80
2023/01/08 01:48:50;;;;;;;;;;;;;;;1.84;87.34;98795.21;86861;1296;22475;-81
2023/01/08 01:50:53;;;;;;;;;;;;;;;1.83;87.51;98790.23;86872;1287;22522;-81
2023/01/08 01:52:59;;;;;;;;;;;;;;;1.80;87.32;98787.83;86724;1291;84211;-79
2023/01/08 01:55:02;;;;;;;;;;;;;;;1.78;87.43;98786.30;86946;1288;22482;-81
2023/01/08 01:57:05;;;;;;;;;;;;;;;1.76;87.31;98785.14;86888;1287;26849;-79
2023/01/08 01:59:07;;;;;;;;;;;;;;;1.70;87.41;98780.02;86710;1280;84164;-81
2023/01/08 02:01:09;;;;;;;;;;;;;;;1.67;87.30;98776.78;86980;1294;22648;-81
2023/01/08 02:03:13;;;;;;;;;;;;;;;1.63;87.36;98772.16;86821;1296;24286;-80
2023/01/08 02:05:15;;;;;;;;;;;;;;;1.59;87.35;98768.77;86935;1287;84045;-77
2023/01/08 02:07:19;;;;;;;;;;;;;;;1.57;87.28;98772.96;86876;1287;22460;-80
2023/01/08 02:09:46;;;;;;;;;;;;;;;1.52;87.35;98766.62;86911;1288;23689;-79
2023/01/08 02:16:23;;;;;;;;;;;;;;;1.43;87.53;98760.68;87832;1272;22468;-79
2023/01/08 02:18:27;;;;;;;;;;;;;;;1.41;87.39;98753.61;86947;1288;22539;-81
2023/01/08 02:20:30;;;;;;;;;;;;;;;1.39;87.25;98753.98;86922;1310;23724;-80
2023/01/08 02:22:32;;;;;;;;;;;;;;;1.37;87.34;98751.77;86932;1293;84564;-80
2023/01/08 02:24:53;;;;;;;;;;;;;;;1.35;87.16;98751.46;86872;1293;22412;-80
2023/01/08 02:26:56;;;;;;;;;;;;;;;1.31;87.46;98754.11;86967;1285;24261;-79
2023/01/08 02:29:02;;;;;;;;;;;;;;;1.27;87.25;98751.41;86787;1291;85198;-79
2023/01/08 02:31:05;;;;;;;;;;;;;;;1.23;87.21;98747.30;86731;1306;24447;-81
2023/01/08 02:33:06;;;;;;;;;;;;;;;1.19;87.14;98746.84;86809;1291;22848;-80
2023/01/08 02:35:09;;;;;;;;;;;;;;;1.17;87.17;98749.46;86828;1300;83900;-79
2023/01/08 02:37:11;;;;;;;;;;;;;;;1.13;87.19;98751.59;86968;1309;25117;-80
2023/01/08 02:39:15;;;;;;;;;;;;;;;1.07;86.88;98751.16;86846;1303;22445;-80
2023/01/08 02:41:20;;;;;;;;;;;;;;;1.04;87.13;98744.96;86870;1301;84236;-80
2023/01/08 02:43:26;;;;;;;;;;;;;;;1.01;87.17;98737.90;86881;1287;22491;-81
2023/01/08 02:45:40;;;;;;;;;;;;;;;0.99;87.05;98734.31;86862;1289;25282;-80
2023/01/08 02:47:44;;;;;;;;;;;;;;;0.93;87.12;98736.98;86829;1310;84179;-79
2023/01/08 02:49:51;;;;;;;;;;;;;;;0.89;87.10;98737.55;86841;1312;23149;-79
2023/01/08 02:51:54;;;;;;;;;;;;;;;0.85;86.85;98741.41;86821;1312;24387;-79
2023/01/08 02:54:01;;;;;;;;;;;;;;;0.81;87.00;98741.45;86727;1295;84665;-79
2023/01/08 02:56:05;;;;;;;;;;;;;;;0.78;87.09;98743.22;86808;1304;22511;-79
2023/01/08 02:58:07;;;;;;;;;;;;;;;0.75;87.04;98745.16;86909;1289;22444;-80
2023/01/08 03:00:09;;;;;;;;;;;;;;;0.74;87.08;98742.74;86716;1297;84465;-80
2023/01/08 03:02:11;;;;;;;;;;;;;;;0.76;87.12;98740.31;86885;1295;22445;-80
2023/01/08 03:04:16;;;;;;;;;;;;;;;0.74;87.52;98734.45;86883;1280;22473;-80
2023/01/08 03:06:19;;;;;;;;;;;;;;;0.73;87.22;98741.21;86980;1293;84223;-81
2023/01/08 03:08:22;;;;;;;;;;;;;;;0.73;87.30;98747.27;87000;1312;24340;-79
2023/01/08 03:10:27;;;;;;;;;;;;;;;0.71;87.35;98742.27;86990;1300;84282;-80
2023/01/08 03:12:40;;;;;;;;;;;;;;;0.70;87.35;98743.49;86977;1280;22517;-80
2023/01/08 03:14:58;;;;;;;;;;;;;;;0.70;87.56;98747.46;86849;1291;22969;-80
2023/01/08 03:17:04;;;;;;;;;;;;;;;0.70;87.46;98747.48;86624;1309;84424;-79
2023/01/08 03:19:16;;;;;;;;;;;;;;;0.69;87.30;98739.70;86843;1296;25236;-79
2023/01/08 03:21:19;;;;;;;;;;;;;;;0.68;87.52;98740.05;86917;1287;23572;-80
2023/01/08 03:23:22;;;;;;;;;;;;;;;0.68;87.49;98732.98;86741;1296;84275;-80
2023/01/08 03:25:25;;;;;;;;;;;;;;;0.67;87.17;98728.31;86793;1296;22523;-79
2023/01/08 03:27:28;;;;;;;;;;;;;;;0.67;87.63;98726.06;86894;1297;22545;-80
2023/01/08 03:29:30;;;;;;;;;;;;;;;0.65;87.58;98728.33;86835;1298;84490;-78
2023/01/08 03:31:34;;;;;;;;;;;;;;;0.63;87.49;98727.84;86761;1313;22453;-79
2023/01/08 03:33:36;;;;;;;;;;;;;;;0.62;87.25;98725.79;86890;1291;23395;-81
2023/01/08 03:35:40;;;;;;;;;;;;;;;0.61;87.35;98720.59;86730;1313;84162;-78
2023/01/08 03:37:44;;;;;;;;;;;;;;;0.59;87.46;98715.43;86936;1293;22426;-80
2023/01/08 03:40:08;;;;;;;;;;;;;;;0.58;87.41;98715.80;86872;1289;22453;-80
2023/01/08 03:42:12;;;;;;;;;;;;;;;0.58;87.40;98713.90;86825;1287;84193;-77
2023/01/08 03:44:14;;;;;;;;;;;;;;;0.57;87.53;98714.77;86895;1290;22547;-80
2023/01/08 03:46:19;;;;;;;;;;;;;;;0.56;87.28;98712.00;86860;1312;23839;-80
2023/01/08 03:48:23;;;;;;;;;;;;;;;0.56;87.55;98715.83;86905;1298;84065;-80
2023/01/08 03:50:26;;;;;;;;;;;;;;;0.55;87.52;98708.58;86895;1312;22461;-79
2023/01/08 03:52:29;;;;;;;;;;;;;;;0.55;87.58;98706.34;86800;1284;84377;-79
2023/01/08 03:54:33;;;;;;;;;;;;;;;0.55;87.53;98704.61;86795;1299;23557;-79
2023/01/08 03:56:35;;;;;;;;;;;;;;;0.55;87.48;98700.45;86805;1298;22491;-79
2023/01/08 03:58:37;;;;;;;;;;;;;;;0.54;87.35;98697.70;86650;1300;84619;-80
2023/01/08 04:00:38;;;;;;;;;;;;;;;0.53;87.67;98693.55;86857;1290;22570;-80
2023/01/08 04:02:43;;;;;;;;;;;;;;;0.53;87.32;98692.69;86705;1291;22425;-79
2023/01/08 04:04:44;;;;;;;;;;;;;;;0.52;87.66;98689.95;86831;1291;84416;-80
2023/01/08 04:06:46;;;;;;;;;;;;;;;0.51;87.67;98690.48;86847;1297;22539;-79
2023/01/08 04:08:48;;;;;;;;;;;;;;;0.49;87.53;98683.58;86740;1291;22481;-78
2023/01/08 04:10:50;;;;;;;;;;;;;;;0.49;87.63;98681.16;86776;1291;84278;-78
2023/01/08 04:12:51;;;;;;;;;;;;;;;0.47;87.50;98682.91;86782;1312;22536;-79
2023/01/08 04:14:53;;;;;;;;;;;;;;;0.45;87.49;98685.54;86801;1283;22494;-80
2023/01/08 04:16:54;;;;;;;;;;;;;;;0.43;87.57;98686.07;86849;1287;84311;-78
2023/01/08 04:18:56;;;;;;;;;;;;;;;0.40;87.62;98681.10;86893;1298;23172;-79
2023/01/08 04:20:57;;;;;;;;;;;;;;;0.38;87.35;98682.85;86935;1294;22747;-79
2023/01/08 04:22:59;;;;;;;;;;;;;;;0.36;87.59;98688.77;86846;1310;84964;-80
2023/01/08 04:25:01;;;;;;;;;;;;;;;0.34;87.43;98689.80;86980;1294;22532;-80
2023/01/08 04:27:02;;;;;;;;;;;;;;;0.31;87.46;98688.98;86943;1290;23242;-80
2023/01/08 04:29:04;;;;;;;;;;;;;;;0.28;87.54;98691.77;86787;1288;84408;-79
2023/01/08 04:31:06;;;;;;;;;;;;;;;0.27;87.56;98687.11;86879;1287;22483;-81
2023/01/08 04:33:08;;;;;;;;;;;;;;;0.25;87.34;98692.33;86858;1285;22519;-80
2023/01/08 04:35:10;;;;;;;;;;;;;;;0.22;87.38;98687.69;86853;1290;84495;-80
2023/01/08 04:37:11;;;;;;;;;;;;;;;0.20;87.45;98689.98;86910;1298;22514;-80
2023/01/08 04:39:13;;;;;;;;;;;;;;;0.18;87.39;98689.13;86875;1288;22503;-80
2023/01/08 04:41:17;;;;;;;;;;;;;;;0.17;87.31;98689.48;86797;1298;84427;-80
2023/01/08 04:43:19;;;;;;;;;;;;;;;0.14;87.41;98692.61;86763;1297;22422;-79
2023/01/08 04:45:21;;;;;;;;;;;;;;;0.12;87.33;98691.26;86705;1297;22472;-79
2023/01/08 04:47:22;;;;;;;;;;;;;;;0.11;87.38;98691.79;86556;1281;84221;-78
2023/01/08 04:49:24;;;;;;;;;;;;;;;0.08;87.40;98684.56;86703;1312;22605;-79
2023/01/08 04:51:25;;;;;;;;;;;;;;;0.06;87.43;98682.67;86730;1295;22470;-80
2023/01/08 04:53:28;;;;;;;;;;;;;;;0.05;87.65;98684.94;86704;1295;85809;-80
2023/01/08 04:55:29;;;;;;;;;;;;;;;0.03;87.34;98680.98;86656;1298;23367;-80
2023/01/08 04:57:32;;;;;;;;;;;;;;;-0.01;87.52;98676.88;86718;1304;22492;-79
2023/01/08 04:59:33;;;;;;;;;;;;;;;-0.01;87.41;98683.11;86571;1288;85293;-80
2023/01/08 05:01:35;;;;;;;;;;;;;;;-0.03;87.44;98686.92;86674;1287;22719;-80
2023/01/08 05:03:36;;;;;;;;;;;;;;;-0.04;87.48;98687.13;86786;1296;24238;-79
2023/01/08 05:05:38;;;;;;;;;;;;;;;-0.06;87.26;98685.73;86708;1312;84443;-80
2023/01/08 05:07:40;;;;;;;;;;;;;;;-0.08;87.28;98679.55;86715;1295;22445;-78
2023/01/08 05:09:41;;;;;;;;;;;;;;;-0.08;87.50;98682.48;86812;1287;22470;-78
2023/01/08 05:11:43;;;;;;;;;;;;;;;-0.09;87.49;98680.77;86663;1312;84411;-80
2023/01/08 05:13:48;;;;;;;;;;;;;;;-0.09;87.55;98674.73;86614;1296;22477;-77
2023/01/08 05:15:49;;;;;;;;;;;;;;;-0.10;87.46;98678.19;86684;1287;22482;-80
2023/01/08 05:18:00;;;;;;;;;;;;;;;-0.10;87.46;98675.77;86638;1288;84482;-78
2023/01/08 05:20:02;;;;;;;;;;;;;;;-0.10;87.64;98674.90;86740;1298;24060;-79
2023/01/08 05:22:03;;;;;;;;;;;;;;;-0.11;87.49;98672.48;86675;1296;22430;-80
2023/01/08 05:24:05;;;;;;;;;;;;;;;-0.11;87.61;98675.25;86503;1297;86085;-79
2023/01/08 05:26:07;;;;;;;;;;;;;;;-0.10;87.60;98675.25;86654;1312;22509;-79
2023/01/08 05:28:08;;;;;;;;;;;;;;;-0.11;87.46;98674.21;86646;1296;25528;-80
2023/01/08 05:30:10;;;;;;;;;;;;;;;-0.11;87.59;98668.86;86600;1312;84894;-79
2023/01/08 05:32:16;;;;;;;;;;;;;;;-0.12;87.55;98661.11;86762;1297;22454;-79
2023/01/08 05:34:20;;;;;;;;;;;;;;;-0.13;87.60;98656.98;86794;1293;23855;-80
2023/01/08 05:36:22;;;;;;;;;;;;;;;-0.13;87.60;98655.77;86691;1312;84567;-78
2023/01/08 05:38:23;;;;;;;;;;;;;;;-0.13;87.69;98659.22;86767;1289;22725;-79
2023/01/08 05:40:25;;;;;;;;;;;;;;;-0.14;87.66;98656.30;86646;1297;84597;-78
2023/01/08 05:42:26;;;;;;;;;;;;;;;-0.15;87.61;98650.44;86731;1295;22577;-77
2023/01/08 05:44:28;;;;;;;;;;;;;;;-0.17;87.56;98644.23;86783;1295;26573;-79
2023/01/08 05:46:29;;;;;;;;;;;;;;;-0.19;87.41;98646.33;86779;1291;85676;-79
2023/01/08 05:48:32;;;;;;;;;;;;;;;-0.20;87.54;98640.29;86787;1292;23719;-80
2023/01/08 05:50:34;;;;;;;;;;;;;;;-0.21;87.65;98633.58;86804;1312;22477;-79
2023/01/08 05:52:35;;;;;;;;;;;;;;;-0.22;87.58;98631.52;86703;1288;86231;-80
2023/01/08 05:54:37;;;;;;;;;;;;;;;-0.22;87.64;98633.59;86710;1294;22468;-79
2023/01/08 05:56:39;;;;;;;;;;;;;;;-0.24;87.67;98633.26;86719;1287;22520;-80
2023/01/08 05:58:42;;;;;;;;;;;;;;;-0.27;87.66;98629.83;86621;1296;85854;-80
2023/01/08 06:00:44;;;;;;;;;;;;;;;-0.24;87.60;98634.64;86634;1291;22641;-79
2023/01/08 06:02:46;;;;;;;;;;;;;;;-0.24;87.72;98633.77;86694;1312;24240;-79
2023/01/08 06:04:47;;;;;;;;;;;;;;;-0.26;87.53;98629.48;86633;1313;84628;-78
2023/01/08 06:06:49;;;;;;;;;;;;;;;-0.26;87.61;98634.14;86609;1313;22704;-79
2023/01/08 06:08:51;;;;;;;;;;;;;;;-0.25;87.58;98633.45;86591;1291;25373;-79
2023/01/08 06:10:52;;;;;;;;;;;;;;;-0.26;87.70;98632.05;86504;1292;84404;-80
2023/01/08 06:12:54;;;;;;;;;;;;;;;-0.23;87.48;98636.35;86568;1297;22753;-79
2023/01/08 06:14:56;;;;;;;;;;;;;;;-0.23;87.73;98644.12;86696;1304;22500;-80
2023/01/08 06:16:57;;;;;;;;;;;;;;;-0.26;87.62;98641.73;86692;1295;84403;-80
2023/01/08 06:18:59;;;;;;;;;;;;;;;-0.22;87.80;98644.97;86737;1287;22460;-79
2023/01/08 06:21:01;;;;;;;;;;;;;;;-0.22;87.75;98642.56;86697;1292;27048;-80
2023/01/08 06:23:03;;;;;;;;;;;;;;;-0.23;87.60;98637.89;86649;1297;85924;-78
2023/01/08 06:25:05;;;;;;;;;;;;;;;-0.24;87.56;98641.89;86515;1295;22502;-78
2023/01/08 06:27:07;;;;;;;;;;;;;;;-0.24;87.63;98642.08;86475;1312;22459;-79
2023/01/08 06:29:08;;;;;;;;;;;;;;;-0.24;87.76;98638.27;86347;1294;84425;-78
2023/01/08 06:31:10;;;;;;;;;;;;;;;-0.28;87.47;98626.91;86234;1293;26657;-79
2023/01/08 06:33:11;;;;;;;;;;;;;;;-0.25;87.62;98633.45;86222;1296;22488;-79
2023/01/08 06:35:13;;;;;;;;;;;;;;;-0.24;87.59;98636.36;86281;1288;85732;-79
2023/01/08 06:37:14;;;;;;;;;;;;;;;-0.24;87.66;98630.83;86294;1290;22491;-79
2023/01/08 06:39:16;;;;;;;;;;;;;;;-0.24;87.82;98621.85;86387;1295;26276;-80
2023/01/08 06:41:17;;;;;;;;;;;;;;;-0.25;87.75;98625.67;86283;1288;84455;-79
2023/01/08 06:43:21;;;;;;;;;;;;;;;-0.26;87.66;98629.84;86193;1287;22676;-78
2023/01/08 06:45:22;;;;;;;;;;;;;;;-0.28;87.65;98629.50;86369;1313;25505;-80
2023/01/08 06:47:24;;;;;;;;;;;;;;;-0.29;87.61;98630.38;86225;1296;84292;-80
2023/01/08 06:49:25;;;;;;;;;;;;;;;-0.29;87.75;98630.36;86248;1294;22642;-79
2023/01/08 06:51:27;;;;;;;;;;;;;;;-0.28;87.78;98632.08;86372;1298;24321;-77
2023/01/08 06:53:29;;;;;;;;;;;;;;;-0.28;87.77;98630.35;86242;1288;84314;-81
2023/01/08 06:55:30;;;;;;;;;;;;;;;-0.29;87.83;98625.55;86326;1297;22527;-80
2023/01/08 06:57:32;;;;;;;;;;;;;;;-0.26;87.80;98628.27;86292;1287;24257;-79
2023/01/08 06:59:33;;;;;;;;;;;;;;;-0.24;87.84;98631.70;86206;1296;84527;-77
2023/01/08 07:01:35;;;;;;;;;;;;;;;-0.22;87.85;98633.06;86199;1294;22627;-80
2023/01/08 07:03:36;;;;;;;;;;;;;;;-0.20;87.92;98634.77;86130;1296;22453;-79
2023/01/08 07:05:38;;;;;;;;;;;;;;;-0.17;87.91;98630.77;86155;1286;84830;-79
2023/01/08 07:07:40;;;;;;;;;;;;;;;-0.14;87.91;98634.88;86182;1288;24814;-81
2023/01/08 07:09:42;;;;;;;;;;;;;;;-0.12;88.09;98637.98;86275;1312;22592;-79
2023/01/08 07:11:43;;;;;;;;;;;;;;;-0.09;88.05;98635.53;86395;1292;85562;-79
2023/01/08 07:13:45;;;;;;;;;;;;;;;-0.08;88.04;98635.52;86237;1297;25647;-81
2023/01/08 07:15:46;;;;;;;;;;;;;;;-0.08;87.86;98637.57;86249;1298;22470;-80
2023/01/08 07:17:48;;;;;;;;;;;;;;;-0.05;87.80;98638.77;86272;1301;84482;-79
2023/01/08 07:19:49;;;;;;;;;;;;;;;-0.03;87.81;98639.24;86343;1287;23962;-80
2023/01/08 07:21:51;;;;;;;;;;;;;;;0.02;87.84;98638.17;86287;1297;23475;-80
2023/01/08 07:23:52;;;;;;;;;;;;;;;0.04;87.97;98635.71;86391;1288;84225;-80
2023/01/08 07:25:54;;;;;;;;;;;;;;;0.03;87.93;98628.30;86399;1279;22621;-79
2023/01/08 07:27:56;;;;;;;;;;;;;;;0.11;87.92;98626.83;86206;1295;22526;-80
2023/01/08 07:29:57;;;;;;;;;;;;;;;0.14;88.00;98619.71;86183;1288;84347;-80
2023/01/08 07:31:59;;;;;;;;;;;;;;;0.19;87.98;98620.00;86119;1288;23058;-79
2023/01/08 07:34:01;;;;;;;;;;;;;;;0.23;87.92;98620.30;86067;1287;22705;-79
2023/01/08 07:36:02;;;;;;;;;;;;;;;0.27;88.04;98620.25;85921;1290;85317;-81
2023/01/08 07:38:04;;;;;;;;;;;;;;;0.29;88.17;98616.77;86009;1298;22456;-80
2023/01/08 07:40:06;;;;;;;;;;;;;;;0.32;88.00;98605.51;86034;1284;23217;-80
2023/01/08 07:42:08;;;;;;;;;;;;;;;0.36;88.04;98595.94;86068;1294;84138;-81
2023/01/08 07:44:10;;;;;;;;;;;;;;;0.37;88.05;98589.54;85944;1296;22735;-79
2023/01/08 07:46:12;;;;;;;;;;;;;;;0.43;88.16;98601.04;86088;1292;23950;-80
2023/01/08 07:48:16;;;;;;;;;;;;;;;0.46;88.16;98602.20;85987;1284;85682;-81
2023/01/08 07:50:18;;;;;;;;;;;;;;;0.51;88.03;98599.91;85862;1298;22479;-79
2023/01/08 07:52:19;;;;;;;;;;;;;;;0.54;87.88;98606.25;85962;1301;25714;-79
2023/01/08 07:54:21;;;;;;;;;;;;;;;0.59;87.90;98604.28;85941;1288;84192;-80
2023/01/08 07:56:23;;;;;;;;;;;;;;;0.62;87.91;98605.79;85929;1287;24295;-80
2023/01/08 07:58:26;;;;;;;;;;;;;;;0.67;88.15;98598.45;85972;1289;22656;-80
2023/01/08 08:00:27;;;;;;;;;;;;;;;0.71;88.30;98594.59;86007;1295;97329;-82
2023/01/08 08:02:29;;;;;;;;;;;;;;;0.76;88.19;98591.40;85984;1281;25634;-81
2023/01/08 08:04:30;;;;;;;;;;;;;;;0.80;88.15;98586.50;85896;1294;84920;-80
2023/01/08 08:06:32;;;;;;;;;;;;;;;0.84;87.98;98582.64;85953;1292;24543;-80
2023/01/08 08:08:34;;;;;;;;;;;;;;;0.86;88.28;98582.09;85970;1287;22456;-79
2023/01/08 08:10:36;;;;;;;;;;;;;;;0.93;88.14;98581.13;85847;1293;84495;-80
2023/01/08 08:12:37;;;;;;;;;;;;;;;0.96;88.22;98579.87;85995;1294;26186;-79
2023/01/08 08:14:39;;;;;;;;;;;;;;;1.01;88.16;98578.59;86352;1311;22499;-79
2023/01/08 08:16:43;;;;;;;;;;;;;;;1.05;88.20;98580.24;86593;1288;84508;-79
2023/01/08 08:18:45;;;;;;;;;;;;;;;1.09;88.39;98572.04;86481;1298;22573;-80
2023/01/08 08:20:50;;;;;;;;;;;;;;;1.14;88.33;98568.32;86399;1287;24366;-79
2023/01/08 08:22:58;;;;;;;;;;;;;;;1.19;88.28;98565.98;86253;1290;85467;-79
2023/01/08 08:25:00;;;;;;;;;;;;;;;1.24;88.46;98562.11;86545;1294;25571;-81
2023/01/08 08:27:01;;;;;;;;;;;;;;;1.31;88.32;98562.16;86455;1288;22461;-79
2023/01/08 08:29:03;;;;;;;;;;;;;;;1.38;88.28;98555.80;86407;1288;84098;-80
2023/01/08 08:31:05;;;;;;;;;;;;;;;1.43;88.17;98550.50;86357;1297;22456;-78
2023/01/08 08:33:06;;;;;;;;;;;;;;;1.50;88.33;98544.17;86494;1288;22549;-79
2023/01/08 08:35:09;;;;;;;;;;;;;;;1.58;88.49;98539.52;86402;1289;84158;-80
2023/01/08 08:37:10;;;;;;;;;;;;;;;1.65;88.50;98533.67;86298;1290;22502;-82
2023/01/08 08:39:13;;;;;;;;;;;;;;;1.72;88.62;98531.11;86479;1287;22514;-80
2023/01/08 08:41:16;;;;;;;;;;;;;;;1.79;88.46;98527.66;86347;1288;84138;-80
2023/01/08 08:43:17;;;;;;;;;;;;;;;1.86;88.49;98525.27;86571;1293;22885;-79
2023/01/08 08:45:19;;;;;;;;;;;;;;;1.92;88.36;98525.52;86835;1287;22499;-79
2023/01/08 08:47:20;;;;;;;;;;;;;;;1.98;88.28;98522.42;86928;1304;84183;-79
2023/01/08 08:49:22;;;;;;;;;;;;;;;2.07;88.30;98526.39;86860;1291;22452;-79
2023/01/08 08:51:23;;;;;;;;;;;;;;;2.16;88.34;98530.05;86888;1297;22483;-80
2023/01/08 08:53:25;;;;;;;;;;;;;;;2.24;88.42;98532.64;86726;1314;84662;-80
2023/01/08 08:55:27;;;;;;;;;;;;;;;2.33;88.35;98532.97;86886;1294;22891;-79
2023/01/08 08:57:29;;;;;;;;;;;;;;;2.47;88.66;98526.39;87006;1287;24425;-79
2023/01/08 08:59:31;;;;;;;;;;;;;;;2.60;88.37;98516.92;86971;1288;84610;-78
2023/01/08 09:01:33;;;;;;;;;;;;;;;2.84;88.43;98517.55;86955;1287;22468;-80
2023/01/08 09:03:34;;;;;;;;;;;;;;;3.00;88.32;98516.65;87067;1295;22502;-78
2023/01/08 09:05:44;;;;;;;;;;;;;;;3.05;88.29;98520.01;86932;1287;84763;-81
2023/01/08 09:07:45;;;;;;;;;;;;;;;3.03;88.10;98519.34;87074;1288;24267;-80
2023/01/08 09:09:47;;;;;;;;;;;;;;;3.06;87.95;98517.56;87067;1313;22527;-81
2023/01/08 09:11:48;;;;;;;;;;;;;;;3.12;87.99;98516.70;87280;1296;84946;-76
2023/01/08 09:13:50;;;;;;;;;;;;;;;3.20;88.04;98515.98;87303;1297;22429;-78
2023/01/08 09:15:52;;;;;;;;;;;;;;;3.28;87.84;98521.15;87300;1288;22528;-78
2023/01/08 09:17:54;;;;;;;;;;;;;;;3.38;87.87;98519.34;87062;1294;84400;-78
2023/01/08 09:19:56;;;;;;;;;;;;;;;3.42;87.85;98507.08;87367;1295;22495;-80
2023/01/08 09:21:57;;;;;;;;;;;;;;;3.54;88.04;98509.67;87104;1287;22478;-77
2023/01/08 09:23:59;;;;;;;;;;;;;;;3.60;87.72;98506.77;87179;1304;84693;-78
2023/01/08 09:26:04;;;;;;;;;;;;;;;3.64;87.83;98506.84;87388;1288;22512;-84
2023/01/08 09:28:08;;;;;;;;;;;;;;;3.63;87.41;98506.52;87336;1294;22646;-80
2023/01/08 09:30:10;;;;;;;;;;;;;;;3.63;87.14;98504.95;86949;1297;84357;-78
2023/01/08 09:32:12;;;;;;;;;;;;;;;3.67;87.56;98501.54;87041;1288;25272;-78
2023/01/08 09:34:14;;;;;;;;;;;;;;;3.67;87.52;98492.48;87188;1306;22517;-77
2023/01/08 09:36:16;;;;;;;;;;;;;;;3.72;87.41;98491.84;86915;1281;84377;-78
2023/01/08 09:38:17;;;;;;;;;;;;;;;3.76;87.38;98488.95;87029;1291;22533;-78
2023/01/08 09:40:20;;;;;;;;;;;;;;;3.76;87.39;98489.11;87285;1297;22412;-82
2023/01/08 09:42:25;;;;;;;;;;;;;;;3.78;87.33;98486.96;86896;1297;84052;-77
2023/01/08 09:44:29;;;;;;;;;;;;;;;3.79;87.40;98483.10;86985;1294;24234;-76
2023/01/08 09:46:31;;;;;;;;;;;;;;;3.83;87.35;98471.55;86919;1298;22407;-76
2023/01/08 09:48:37;;;;;;;;;;;;;;;3.85;87.55;98469.73;86925;1288;22457;-77
2023/01/08 09:50:38;;;;;;;;;;;;;;;3.90;87.47;98468.73;86810;1303;22456;-78
2023/01/08 09:52:40;;;;;;;;;;;;;;;3.95;87.42;98462.86;86677;1312;84364;-78
2023/01/08 09:54:42;;;;;;;;;;;;;;;3.97;87.44;98456.70;86731;1287;22739;-77
2023/01/08 09:56:43;;;;;;;;;;;;;;;4.02;87.31;98462.80;86810;1290;22896;-77
2023/01/08 09:59:04;;;;;;;;;;;;;;;4.04;87.48;98455.61;86809;1304;84568;-77
2023/01/08 10:01:06;;;;;;;;;;;;;;;4.07;87.32;98452.23;87052;1288;22633;-77
2023/01/08 10:03:10;;;;;;;;;;;;;;;4.08;87.15;98447.67;87031;1293;22529;-77
2023/01/08 10:05:14;;;;;;;;;;;;;;;4.10;87.21;98445.02;86892;1295;84675;-76
2023/01/08 10:07:20;;;;;;;;;;;;;;;4.15;87.27;98440.16;86761;1302;22461;-76
2023/01/08 10:09:24;;;;;;;;;;;;;;;4.19;87.32;98433.95;86764;1291;22485;-75
2023/01/08 10:11:29;;;;;;;;;;;;;;;4.22;87.14;98442.55;86867;1297;84435;-76
2023/01/08 10:13:32;;;;;;;;;;;;;;;4.24;87.13;98427.17;86960;1290;22477;-78
2023/01/08 10:15:34;;;;;;;;;;;;;;;4.25;87.09;98421.57;86907;1312;22548;-76
2023/01/08 10:17:37;;;;;;;;;;;;;;;4.24;87.12;98416.91;86927;1294;84388;-78
2023/01/08 10:19:39;;;;;;;;;;;;;;;4.25;87.00;98412.02;87086;1288;24295;-76
2023/01/08 10:21:41;;;;;;;;;;;;;;;4.31;87.11;98410.12;86905;1297;22425;-77
2023/01/08 10:23:49;;;;;;;;;;;;;;;4.37;87.15;98404.52;87137;1311;84150;-76
2023/01/08 10:25:53;;;;;;;;;;;;;;;4.40;87.06;98401.11;86807;1284;22685;-77
2023/01/08 10:28:00;;;;;;;;;;;;;;;4.41;87.14;98397.95;86976;1289;22465;-77
2023/01/08 10:30:05;;;;;;;;;;;;;;;4.41;87.00;98390.30;86794;1298;84558;-76
2023/01/08 10:32:24;;;;;;;;;;;;;;;4.40;86.97;98382.52;86882;1295;22428;-78
2023/01/08 10:34:30;;;;;;;;;;;;;;;4.40;86.91;98378.86;86751;1289;22636;-76
2023/01/08 10:36:37;;;;;;;;;;;;;;;4.46;87.05;98378.84;86876;1291;83989;-75
2023/01/08 10:38:49;;;;;;;;;;;;;;;4.54;87.09;98374.03;86936;1288;22592;-75
2023/01/08 10:40:50;;;;;;;;;;;;;;;4.68;87.09;98377.60;86886;1300;84309;-75
2023/01/08 10:42:53;;;;;;;;;;;;;;;4.70;86.90;98376.82;87367;1293;22715;-75
2023/01/08 10:45:01;;;;;;;;;;;;;;;4.67;86.67;98371.02;87086;1293;22909;-77
2023/01/08 10:47:03;;;;;;;;;;;;;;;4.61;86.63;98367.88;86833;1290;84303;-76
2023/01/08 10:49:06;;;;;;;;;;;;;;;4.58;86.70;98363.63;87286;1286;22573;-77
2023/01/08 10:51:27;;;;;;;;;;;;;;;4.56;86.60;98356.38;87248;1283;24280;-77